Reus, Spain

2:40 PM CEST on August 28, 2015 (GMT +0200)
Reus Air Base | | Change Station
CLOSE
Current Station
Airport
Location: Reus,
Elevation: 249 ft
Nearby Weather Stations

Elev 249 ft 41.15 °N, 1.18 °E | Updated 10 minutes ago

Partly Cloudy
Partly Cloudy
86 °F
Feels Like 93 °F
N
5
Wind Variable Wind from SSE

Today
High -- | Low -- °F
--% Chance of Precip.
Yesterday
High -- | Low -- °F
Precip. -- in
7:17 AM 8:35 PM
Waxing Gibbous, 98% visible
Pressure 30.06 in
Visibility 6.2 miles
Clouds Few 2500 ft
Heat Index 93 °F
Dew Point 73 °F
Humidity 66%
Rainfall 0.00 in
Snow Depth Not available.
UV 10 out of 12
Pollen Not available.
Air Quality Not available.
Flu Activity Not available.
METAR LERS 281230Z 16004KT 090V210 9999 FEW025 30/23 Q1018
Pressure 30.06 in
Visibility 6.2 miles
Clouds Few 2500 ft
Heat Index 93 °F
Dew Point 73 °F
Humidity 66%
Rainfall 0.00 in
Snow Depth Not available.
UV 10 out of 12
Pollen Not available.
Air Quality Not available.
Flu Activity Not available.
METAR LERS 281230Z 16004KT 090V210 9999 FEW025 30/23 Q1018

10-Day Weather Forecast

×

Almanac

Astronomy

Aug. 28, 2015 Rise Set
Actual Time
Civil Twilight
Nautical Twilight
Astronomical Twilight
Moon
Length Of Visible Light
Length of Day
Tomorrow will be .
, % of the Moon is Illuminated

Today's Extremes

Country Highs Country Lows

Community

WunderPhotos

Upload Photos

1,850,373 photos uploaded!

WunderBlogs® & News

Nearby

Air Quality

  Air Quality AQ Index Pollutant
Not available.

Snow Depth

Station Depth Elevation

Earthquake Activity

City Distance Mag. Time & Date
Minimum magnitude displayed is 2.5.

Coastal Water Temperatures

Place Temperature

Stations

Nearby Weather Stations

Station Location Temp. Windchill Dew Point Humidity Wind Precip. Elev Updated Type